sensor_id;sensor_type;location;lat;lon;timestamp;pressure;altitude;pressure_sealevel;temperature
71463;BMP180;59266;52.608;13.260;2023-11-19T00:01:09;101136.00;;;4.80
71463;BMP180;59266;52.608;13.260;2023-11-19T00:03:36;101129.00;;;4.70
71463;BMP180;59266;52.608;13.260;2023-11-19T00:06:03;101113.00;;;4.90
71463;BMP180;59266;52.608;13.260;2023-11-19T00:08:30;101106.00;;;4.90
71463;BMP180;59266;52.608;13.260;2023-11-19T00:10:57;101100.00;;;4.80
71463;BMP180;59266;52.608;13.260;2023-11-19T00:13:24;101093.00;;;4.90
71463;BMP180;59266;52.608;13.260;2023-11-19T00:15:53;101090.00;;;4.80
71463;BMP180;59266;52.608;13.260;2023-11-19T00:18:20;101088.00;;;4.90
71463;BMP180;59266;52.608;13.260;2023-11-19T00:20:47;101075.00;;;4.80
71463;BMP180;59266;52.608;13.260;2023-11-19T00:23:13;101070.00;;;4.90
71463;BMP180;59266;52.608;13.260;2023-11-19T00:25:41;101065.00;;;4.90
71463;BMP180;59266;52.608;13.260;2023-11-19T00:28:07;101063.00;;;4.90
71463;BMP180;59266;52.608;13.260;2023-11-19T00:30:34;101067.00;;;4.90
71463;BMP180;59266;52.608;13.260;2023-11-19T00:33:01;101067.00;;;4.80
71463;BMP180;59266;52.608;13.260;2023-11-19T00:35:28;101059.00;;;4.90
71463;BMP180;59266;52.608;13.260;2023-11-19T00:37:55;101044.00;;;4.90
71463;BMP180;59266;52.608;13.260;2023-11-19T00:40:21;101037.00;;;4.90
71463;BMP180;59266;52.608;13.260;2023-11-19T00:42:49;101029.00;;;4.90
71463;BMP180;59266;52.608;13.260;2023-11-19T00:45:16;101017.00;;;5.00
71463;BMP180;59266;52.608;13.260;2023-11-19T00:47:43;101015.00;;;5.00
71463;BMP180;59266;52.608;13.260;2023-11-19T00:50:10;101007.00;;;5.00
71463;BMP180;59266;52.608;13.260;2023-11-19T00:52:38;101000.00;;;5.00
71463;BMP180;59266;52.608;13.260;2023-11-19T00:55:05;100989.00;;;5.00
71463;BMP180;59266;52.608;13.260;2023-11-19T00:57:34;100984.00;;;5.00
71463;BMP180;59266;52.608;13.260;2023-11-19T01:00:02;100971.00;;;5.00
71463;BMP180;59266;52.608;13.260;2023-11-19T01:02:35;100963.00;;;5.00
71463;BMP180;59266;52.608;13.260;2023-11-19T01:05:02;100964.00;;;5.10
71463;BMP180;59266;52.608;13.260;2023-11-19T01:07:30;100952.00;;;5.10
71463;BMP180;59266;52.608;13.260;2023-11-19T01:09:57;100950.00;;;5.10
71463;BMP180;59266;52.608;13.260;2023-11-19T01:12:24;100932.00;;;5.10
71463;BMP180;59266;52.608;13.260;2023-11-19T01:14:51;100914.00;;;5.10
71463;BMP180;59266;52.608;13.260;2023-11-19T01:17:17;100920.00;;;5.20
71463;BMP180;59266;52.608;13.260;2023-11-19T01:19:44;100913.00;;;5.20
71463;BMP180;59266;52.608;13.260;2023-11-19T01:22:13;100905.00;;;5.20
71463;BMP180;59266;52.608;13.260;2023-11-19T01:24:40;100910.00;;;5.20
71463;BMP180;59266;52.608;13.260;2023-11-19T01:27:06;100899.00;;;5.30
71463;BMP180;59266;52.608;13.260;2023-11-19T01:29:33;100897.00;;;5.30
71463;BMP180;59266;52.608;13.260;2023-11-19T01:31:59;100898.00;;;5.30
71463;BMP180;59266;52.608;13.260;2023-11-19T01:34:26;100896.00;;;5.30
71463;BMP180;59266;52.608;13.260;2023-11-19T01:36:53;100887.00;;;5.30
71463;BMP180;59266;52.608;13.260;2023-11-19T01:39:20;100866.00;;;5.30
71463;BMP180;59266;52.608;13.260;2023-11-19T01:41:47;100855.00;;;5.20
71463;BMP180;59266;52.608;13.260;2023-11-19T01:44:14;100845.00;;;5.30
71463;BMP180;59266;52.608;13.260;2023-11-19T01:46:44;100848.00;;;5.30
71463;BMP180;59266;52.608;13.260;2023-11-19T01:49:14;100834.00;;;5.30
71463;BMP180;59266;52.608;13.260;2023-11-19T01:51:42;100826.00;;;5.40
71463;BMP180;59266;52.608;13.260;2023-11-19T01:54:08;100805.00;;;5.40
71463;BMP180;59266;52.608;13.260;2023-11-19T01:56:37;100811.00;;;5.40
71463;BMP180;59266;52.608;13.260;2023-11-19T01:59:05;100812.00;;;5.40
71463;BMP180;59266;52.608;13.260;2023-11-19T02:01:32;100811.00;;;5.30
71463;BMP180;59266;52.608;13.260;2023-11-19T02:04:01;100799.00;;;5.30
71463;BMP180;59266;52.608;13.260;2023-11-19T02:06:28;100787.00;;;5.30
71463;BMP180;59266;52.608;13.260;2023-11-19T02:08:56;100777.00;;;5.20
71463;BMP180;59266;52.608;13.260;2023-11-19T02:11:23;100752.00;;;5.10
71463;BMP180;59266;52.608;13.260;2023-11-19T02:13:56;100743.00;;;5.20
71463;BMP180;59266;52.608;13.260;2023-11-19T02:16:23;100738.00;;;5.20
71463;BMP180;59266;52.608;13.260;2023-11-19T02:18:50;100724.00;;;5.20
71463;BMP180;59266;52.608;13.260;2023-11-19T02:21:17;100730.00;;;5.20
71463;BMP180;59266;52.608;13.260;2023-11-19T02:23:44;100737.00;;;5.30
71463;BMP180;59266;52.608;13.260;2023-11-19T02:26:25;100732.00;;;5.30
71463;BMP180;59266;52.608;13.260;2023-11-19T02:28:55;100717.00;;;5.30
71463;BMP180;59266;52.608;13.260;2023-11-19T02:31:21;100699.00;;;5.30
71463;BMP180;59266;52.608;13.260;2023-11-19T02:33:49;100705.00;;;5.40
71463;BMP180;59266;52.608;13.260;2023-11-19T02:36:18;100701.00;;;5.40
71463;BMP180;59266;52.608;13.260;2023-11-19T02:38:44;100696.00;;;5.30
71463;BMP180;59266;52.608;13.260;2023-11-19T02:41:13;100665.00;;;5.30
71463;BMP180;59266;52.608;13.260;2023-11-19T02:43:41;100679.00;;;5.30
71463;BMP180;59266;52.608;13.260;2023-11-19T02:46:08;100666.00;;;5.30
71463;BMP180;59266;52.608;13.260;2023-11-19T02:48:38;100663.00;;;5.30
71463;BMP180;59266;52.608;13.260;2023-11-19T02:51:05;100653.00;;;5.30
71463;BMP180;59266;52.608;13.260;2023-11-19T02:53:38;100654.00;;;5.30
71463;BMP180;59266;52.608;13.260;2023-11-19T02:56:07;100640.00;;;5.30
71463;BMP180;59266;52.608;13.260;2023-11-19T02:58:46;100640.00;;;5.40
71463;BMP180;59266;52.608;13.260;2023-11-19T03:01:13;100635.00;;;5.40
71463;BMP180;59266;52.608;13.260;2023-11-19T03:03:50;100635.00;;;5.40
71463;BMP180;59266;52.608;13.260;2023-11-19T03:06:24;100645.00;;;5.40
71463;BMP180;59266;52.608;13.260;2023-11-19T03:08:50;100645.00;;;5.40
71463;BMP180;59266;52.608;13.260;2023-11-19T03:11:17;100646.00;;;5.40
71463;BMP180;59266;52.608;13.260;2023-11-19T03:13:44;100639.00;;;5.40
71463;BMP180;59266;52.608;13.260;2023-11-19T03:16:10;100636.00;;;5.40
71463;BMP180;59266;52.608;13.260;2023-11-19T03:18:37;100644.00;;;5.40
71463;BMP180;59266;52.608;13.260;2023-11-19T03:21:08;100636.00;;;5.40
71463;BMP180;59266;52.608;13.260;2023-11-19T03:23:35;100633.00;;;5.30
71463;BMP180;59266;52.608;13.260;2023-11-19T03:26:03;100623.00;;;5.20
71463;BMP180;59266;52.608;13.260;2023-11-19T03:28:31;100603.00;;;5.10
71463;BMP180;59266;52.608;13.260;2023-11-19T03:30:58;100594.00;;;5.00
71463;BMP180;59266;52.608;13.260;2023-11-19T03:33:25;100588.00;;;4.90
71463;BMP180;59266;52.608;13.260;2023-11-19T03:35:56;100581.00;;;4.80
71463;BMP180;59266;52.608;13.260;2023-11-19T03:38:23;100590.00;;;4.80
71463;BMP180;59266;52.608;13.260;2023-11-19T03:40:51;100580.00;;;4.70
71463;BMP180;59266;52.608;13.260;2023-11-19T03:43:18;100552.00;;;4.70
71463;BMP180;59266;52.608;13.260;2023-11-19T03:45:46;100546.00;;;4.60
71463;BMP180;59266;52.608;13.260;2023-11-19T03:48:13;100545.00;;;4.70
71463;BMP180;59266;52.608;13.260;2023-11-19T03:50:43;100546.00;;;4.60
71463;BMP180;59266;52.608;13.260;2023-11-19T03:53:11;100534.00;;;4.60
71463;BMP180;59266;52.608;13.260;2023-11-19T03:55:38;100526.00;;;4.60
71463;BMP180;59266;52.608;13.260;2023-11-19T03:58:04;100515.00;;;4.50
71463;BMP180;59266;52.608;13.260;2023-11-19T04:00:32;100500.00;;;4.50
71463;BMP180;59266;52.608;13.260;2023-11-19T04:02:58;100498.00;;;4.50
71463;BMP180;59266;52.608;13.260;2023-11-19T04:05:25;100488.00;;;4.50
71463;BMP180;59266;52.608;13.260;2023-11-19T04:07:52;100476.00;;;4.50
71463;BMP180;59266;52.608;13.260;2023-11-19T04:10:19;100487.00;;;4.50
71463;BMP180;59266;52.608;13.260;2023-11-19T04:12:47;100470.00;;;4.50
71463;BMP180;59266;52.608;13.260;2023-11-19T04:15:14;100471.00;;;4.50
71463;BMP180;59266;52.608;13.260;2023-11-19T04:17:41;100469.00;;;4.50
71463;BMP180;59266;52.608;13.260;2023-11-19T04:20:08;100476.00;;;4.60
71463;BMP180;59266;52.608;13.260;2023-11-19T04:22:39;100477.00;;;4.60
71463;BMP180;59266;52.608;13.260;2023-11-19T04:25:06;100463.00;;;4.60
71463;BMP180;59266;52.608;13.260;2023-11-19T04:27:34;100458.00;;;4.60
71463;BMP180;59266;52.608;13.260;2023-11-19T04:30:01;100457.00;;;4.60
71463;BMP180;59266;52.608;13.260;2023-11-19T04:32:28;100466.00;;;4.50
71463;BMP180;59266;52.608;13.260;2023-11-19T04:34:55;100459.00;;;4.70
71463;BMP180;59266;52.608;13.260;2023-11-19T04:37:22;100462.00;;;4.60
71463;BMP180;59266;52.608;13.260;2023-11-19T04:39:49;100468.00;;;4.70
71463;BMP180;59266;52.608;13.260;2023-11-19T04:42:16;100438.00;;;4.60
71463;BMP180;59266;52.608;13.260;2023-11-19T04:44:43;100437.00;;;4.60
71463;BMP180;59266;52.608;13.260;2023-11-19T04:47:10;100426.00;;;4.60
71463;BMP180;59266;52.608;13.260;2023-11-19T04:49:40;100418.00;;;4.60
71463;BMP180;59266;52.608;13.260;2023-11-19T04:52:09;100425.00;;;4.70
71463;BMP180;59266;52.608;13.260;2023-11-19T04:54:41;100406.00;;;4.70
71463;BMP180;59266;52.608;13.260;2023-11-19T04:57:08;100393.00;;;4.70
71463;BMP180;59266;52.608;13.260;2023-11-19T04:59:40;100390.00;;;4.60
71463;BMP180;59266;52.608;13.260;2023-11-19T05:02:11;100390.00;;;4.70
71463;BMP180;59266;52.608;13.260;2023-11-19T05:04:37;100382.00;;;4.80
71463;BMP180;59266;52.608;13.260;2023-11-19T05:07:07;100358.00;;;4.70
71463;BMP180;59266;52.608;13.260;2023-11-19T05:09:34;100361.00;;;4.70
71463;BMP180;59266;52.608;13.260;2023-11-19T05:12:01;100341.00;;;4.70
71463;BMP180;59266;52.608;13.260;2023-11-19T05:14:28;100337.00;;;4.80
71463;BMP180;59266;52.608;13.260;2023-11-19T05:16:55;100334.00;;;4.70
71463;BMP180;59266;52.608;13.260;2023-11-19T05:19:21;100324.00;;;4.70
71463;BMP180;59266;52.608;13.260;2023-11-19T05:21:48;100315.00;;;4.70
71463;BMP180;59266;52.608;13.260;2023-11-19T05:24:18;100330.00;;;4.80
71463;BMP180;59266;52.608;13.260;2023-11-19T05:26:47;100334.00;;;4.80
71463;BMP180;59266;52.608;13.260;2023-11-19T05:29:14;100332.00;;;4.80
71463;BMP180;59266;52.608;13.260;2023-11-19T05:31:40;100310.00;;;4.80
71463;BMP180;59266;52.608;13.260;2023-11-19T05:34:10;100298.00;;;4.80
71463;BMP180;59266;52.608;13.260;2023-11-19T05:36:38;100318.00;;;4.80
71463;BMP180;59266;52.608;13.260;2023-11-19T05:39:06;100312.00;;;4.80
71463;BMP180;59266;52.608;13.260;2023-11-19T05:41:33;100311.00;;;4.80
71463;BMP180;59266;52.608;13.260;2023-11-19T05:44:01;100291.00;;;4.80
71463;BMP180;59266;52.608;13.260;2023-11-19T05:46:28;100292.00;;;4.80
71463;BMP180;59266;52.608;13.260;2023-11-19T05:48:55;100288.00;;;4.90
71463;BMP180;59266;52.608;13.260;2023-11-19T05:51:21;100280.00;;;4.90
71463;BMP180;59266;52.608;13.260;2023-11-19T05:53:50;100275.00;;;4.90
71463;BMP180;59266;52.608;13.260;2023-11-19T05:56:17;100278.00;;;5.00
71463;BMP180;59266;52.608;13.260;2023-11-19T05:58:47;100279.00;;;5.00
71463;BMP180;59266;52.608;13.260;2023-11-19T06:01:16;100283.00;;;5.00
71463;BMP180;59266;52.608;13.260;2023-11-19T06:03:43;100277.00;;;5.00
71463;BMP180;59266;52.608;13.260;2023-11-19T06:06:10;100264.00;;;5.00
71463;BMP180;59266;52.608;13.260;2023-11-19T06:08:37;100267.00;;;5.00
71463;BMP180;59266;52.608;13.260;2023-11-19T06:11:04;100250.00;;;5.10
71463;BMP180;59266;52.608;13.260;2023-11-19T06:13:30;100252.00;;;5.10
71463;BMP180;59266;52.608;13.260;2023-11-19T06:15:58;100245.00;;;5.10
71463;BMP180;59266;52.608;13.260;2023-11-19T06:18:24;100247.00;;;5.10
71463;BMP180;59266;52.608;13.260;2023-11-19T06:20:51;100246.00;;;5.10
71463;BMP180;59266;52.608;13.260;2023-11-19T06:23:18;100238.00;;;5.10
71463;BMP180;59266;52.608;13.260;2023-11-19T06:25:47;100246.00;;;5.10
71463;BMP180;59266;52.608;13.260;2023-11-19T06:28:14;100222.00;;;5.10
71463;BMP180;59266;52.608;13.260;2023-11-19T06:30:41;100205.00;;;5.10
71463;BMP180;59266;52.608;13.260;2023-11-19T06:33:08;100213.00;;;5.10
71463;BMP180;59266;52.608;13.260;2023-11-19T06:35:35;100232.00;;;5.20
71463;BMP180;59266;52.608;13.260;2023-11-19T06:38:03;100211.00;;;5.20
71463;BMP180;59266;52.608;13.260;2023-11-19T06:40:33;100221.00;;;5.20
71463;BMP180;59266;52.608;13.260;2023-11-19T06:43:03;100205.00;;;5.10
71463;BMP180;59266;52.608;13.260;2023-11-19T06:45:30;100195.00;;;5.30
71463;BMP180;59266;52.608;13.260;2023-11-19T06:47:57;100196.00;;;5.30
71463;BMP180;59266;52.608;13.260;2023-11-19T06:50:25;100196.00;;;5.30
71463;BMP180;59266;52.608;13.260;2023-11-19T06:52:52;100194.00;;;5.20
71463;BMP180;59266;52.608;13.260;2023-11-19T06:55:19;100194.00;;;5.30
71463;BMP180;59266;52.608;13.260;2023-11-19T06:57:45;100192.00;;;5.30
71463;BMP180;59266;52.608;13.260;2023-11-19T07:00:12;100198.00;;;5.30
71463;BMP180;59266;52.608;13.260;2023-11-19T07:02:39;100195.00;;;5.30
71463;BMP180;59266;52.608;13.260;2023-11-19T07:05:06;100189.00;;;5.40
71463;BMP180;59266;52.608;13.260;2023-11-19T07:07:34;100199.00;;;5.40
71463;BMP180;59266;52.608;13.260;2023-11-19T07:10:02;100190.00;;;5.40
71463;BMP180;59266;52.608;13.260;2023-11-19T07:12:30;100184.00;;;5.40
71463;BMP180;59266;52.608;13.260;2023-11-19T07:14:57;100205.00;;;5.40
71463;BMP180;59266;52.608;13.260;2023-11-19T07:17:24;100225.00;;;5.40
71463;BMP180;59266;52.608;13.260;2023-11-19T07:19:51;100209.00;;;5.50
71463;BMP180;59266;52.608;13.260;2023-11-19T07:22:17;100207.00;;;5.50
71463;BMP180;59266;52.608;13.260;2023-11-19T07:24:44;100202.00;;;5.50
71463;BMP180;59266;52.608;13.260;2023-11-19T07:27:11;100187.00;;;5.50
71463;BMP180;59266;52.608;13.260;2023-11-19T07:29:38;100188.00;;;5.50
71463;BMP180;59266;52.608;13.260;2023-11-19T07:32:05;100200.00;;;5.60
71463;BMP180;59266;52.608;13.260;2023-11-19T07:34:31;100213.00;;;5.70
71463;BMP180;59266;52.608;13.260;2023-11-19T07:36:58;100206.00;;;5.70
71463;BMP180;59266;52.608;13.260;2023-11-19T07:39:29;100206.00;;;5.70
71463;BMP180;59266;52.608;13.260;2023-11-19T07:41:57;100195.00;;;5.70
71463;BMP180;59266;52.608;13.260;2023-11-19T07:44:24;100194.00;;;5.70
71463;BMP180;59266;52.608;13.260;2023-11-19T07:46:51;100198.00;;;5.70
71463;BMP180;59266;52.608;13.260;2023-11-19T07:49:18;100193.00;;;5.70
71463;BMP180;59266;52.608;13.260;2023-11-19T07:51:44;100193.00;;;5.90
71463;BMP180;59266;52.608;13.260;2023-11-19T07:54:12;100190.00;;;5.90
71463;BMP180;59266;52.608;13.260;2023-11-19T07:56:40;100197.00;;;5.90
71463;BMP180;59266;52.608;13.260;2023-11-19T07:59:07;100199.00;;;6.00
71463;BMP180;59266;52.608;13.260;2023-11-19T08:01:34;100203.00;;;6.00
71463;BMP180;59266;52.608;13.260;2023-11-19T08:04:00;100193.00;;;6.10
71463;BMP180;59266;52.608;13.260;2023-11-19T08:06:28;100196.00;;;6.10
71463;BMP180;59266;52.608;13.260;2023-11-19T08:08:55;100187.00;;;6.10
71463;BMP180;59266;52.608;13.260;2023-11-19T08:11:22;100188.00;;;6.20
71463;BMP180;59266;52.608;13.260;2023-11-19T08:13:49;100179.00;;;6.40
71463;BMP180;59266;52.608;13.260;2023-11-19T08:16:15;100186.00;;;6.30
71463;BMP180;59266;52.608;13.260;2023-11-19T08:18:43;100180.00;;;6.40
71463;BMP180;59266;52.608;13.260;2023-11-19T08:21:10;100171.00;;;6.40
71463;BMP180;59266;52.608;13.260;2023-11-19T08:23:37;100181.00;;;6.50
71463;BMP180;59266;52.608;13.260;2023-11-19T08:26:05;100178.00;;;6.60
71463;BMP180;59266;52.608;13.260;2023-11-19T08:28:33;100158.00;;;6.50
71463;BMP180;59266;52.608;13.260;2023-11-19T08:31:02;100187.00;;;6.60
71463;BMP180;59266;52.608;13.260;2023-11-19T08:33:31;100160.00;;;6.60
71463;BMP180;59266;52.608;13.260;2023-11-19T08:35:59;100158.00;;;6.70
71463;BMP180;59266;52.608;13.260;2023-11-19T08:38:27;100163.00;;;6.80
71463;BMP180;59266;52.608;13.260;2023-11-19T08:40:57;100160.00;;;6.90
71463;BMP180;59266;52.608;13.260;2023-11-19T08:43:28;100151.00;;;7.00
71463;BMP180;59266;52.608;13.260;2023-11-19T08:45:54;100134.00;;;7.10
71463;BMP180;59266;52.608;13.260;2023-11-19T08:48:22;100128.00;;;7.30
71463;BMP180;59266;52.608;13.260;2023-11-19T08:50:50;100147.00;;;7.30
71463;BMP180;59266;52.608;13.260;2023-11-19T08:53:17;100128.00;;;7.40
71463;BMP180;59266;52.608;13.260;2023-11-19T08:55:44;100152.00;;;7.40
71463;BMP180;59266;52.608;13.260;2023-11-19T08:58:11;100148.00;;;7.40
71463;BMP180;59266;52.608;13.260;2023-11-19T09:00:38;100147.00;;;7.40
71463;BMP180;59266;52.608;13.260;2023-11-19T09:03:04;100162.00;;;7.40
71463;BMP180;59266;52.608;13.260;2023-11-19T09:05:31;100176.00;;;7.50
71463;BMP180;59266;52.608;13.260;2023-11-19T09:07:58;100183.00;;;7.50
71463;BMP180;59266;52.608;13.260;2023-11-19T09:10:25;100169.00;;;7.60
71463;BMP180;59266;52.608;13.260;2023-11-19T09:12:52;100176.00;;;7.80
71463;BMP180;59266;52.608;13.260;2023-11-19T09:15:21;100186.00;;;7.90
71463;BMP180;59266;52.608;13.260;2023-11-19T09:17:48;100176.00;;;8.00
71463;BMP180;59266;52.608;13.260;2023-11-19T09:20:15;100178.00;;;8.00
71463;BMP180;59266;52.608;13.260;2023-11-19T09:22:42;100166.00;;;8.20
71463;BMP180;59266;52.608;13.260;2023-11-19T09:25:09;100160.00;;;8.60
71463;BMP180;59266;52.608;13.260;2023-11-19T09:27:36;100157.00;;;8.70
71463;BMP180;59266;52.608;13.260;2023-11-19T09:30:07;100153.00;;;8.90
71463;BMP180;59266;52.608;13.260;2023-11-19T09:32:35;100152.00;;;8.80
71463;BMP180;59266;52.608;13.260;2023-11-19T09:35:02;100148.00;;;9.10
71463;BMP180;59266;52.608;13.260;2023-11-19T09:37:29;100152.00;;;9.10
71463;BMP180;59266;52.608;13.260;2023-11-19T09:39:56;100146.00;;;9.30
71463;BMP180;59266;52.608;13.260;2023-11-19T09:42:24;100133.00;;;10.30
71463;BMP180;59266;52.608;13.260;2023-11-19T09:44:54;100136.00;;;10.50
71463;BMP180;59266;52.608;13.260;2023-11-19T09:47:23;100130.00;;;10.10
71463;BMP180;59266;52.608;13.260;2023-11-19T09:49:51;100129.00;;;10.10
71463;BMP180;59266;52.608;13.260;2023-11-19T09:52:23;100135.00;;;10.10
71463;BMP180;59266;52.608;13.260;2023-11-19T09:54:51;100117.00;;;10.00
71463;BMP180;59266;52.608;13.260;2023-11-19T09:57:18;100122.00;;;10.30
71463;BMP180;59266;52.608;13.260;2023-11-19T09:59:48;100135.00;;;10.10
71463;BMP180;59266;52.608;13.260;2023-11-19T10:02:17;100135.00;;;9.90
71463;BMP180;59266;52.608;13.260;2023-11-19T10:04:46;100134.00;;;10.10
71463;BMP180;59266;52.608;13.260;2023-11-19T10:07:13;100133.00;;;10.50
71463;BMP180;59266;52.608;13.260;2023-11-19T10:09:40;100120.00;;;10.50
71463;BMP180;59266;52.608;13.260;2023-11-19T10:12:07;100120.00;;;11.00
71463;BMP180;59266;52.608;13.260;2023-11-19T10:14:34;100122.00;;;11.00
71463;BMP180;59266;52.608;13.260;2023-11-19T10:17:07;100127.00;;;11.10
71463;BMP180;59266;52.608;13.260;2023-11-19T10:19:34;100133.00;;;10.90
71463;BMP180;59266;52.608;13.260;2023-11-19T10:22:10;100135.00;;;10.80
71463;BMP180;59266;52.608;13.260;2023-11-19T10:24:38;100127.00;;;10.80
71463;BMP180;59266;52.608;13.260;2023-11-19T10:27:15;100127.00;;;10.90
71463;BMP180;59266;52.608;13.260;2023-11-19T10:29:48;100103.00;;;11.00
71463;BMP180;59266;52.608;13.260;2023-11-19T10:32:17;100114.00;;;11.10
71463;BMP180;59266;52.608;13.260;2023-11-19T10:34:58;100102.00;;;10.90
71463;BMP180;59266;52.608;13.260;2023-11-19T10:37:31;100096.00;;;11.10
71463;BMP180;59266;52.608;13.260;2023-11-19T10:39:59;100102.00;;;11.10
71463;BMP180;59266;52.608;13.260;2023-11-19T10:42:27;100105.00;;;11.10
71463;BMP180;59266;52.608;13.260;2023-11-19T10:44:54;100107.00;;;11.10
71463;BMP180;59266;52.608;13.260;2023-11-19T10:47:22;100107.00;;;11.20
71463;BMP180;59266;52.608;13.260;2023-11-19T10:49:53;100107.00;;;11.30
71463;BMP180;59266;52.608;13.260;2023-11-19T10:52:20;100102.00;;;11.30
71463;BMP180;59266;52.608;13.260;2023-11-19T10:54:50;100103.00;;;11.40
71463;BMP180;59266;52.608;13.260;2023-11-19T10:57:21;100099.00;;;11.80
71463;BMP180;59266;52.608;13.260;2023-11-19T10:59:55;100112.00;;;11.90
71463;BMP180;59266;52.608;13.260;2023-11-19T11:02:26;100096.00;;;12.30
71463;BMP180;59266;52.608;13.260;2023-11-19T11:04:54;100094.00;;;12.20
71463;BMP180;59266;52.608;13.260;2023-11-19T11:07:22;100100.00;;;12.60
71463;BMP180;59266;52.608;13.260;2023-11-19T11:10:06;100089.00;;;12.30
71463;BMP180;59266;52.608;13.260;2023-11-19T11:12:37;100094.00;;;12.30
71463;BMP180;59266;52.608;13.260;2023-11-19T11:15:06;100076.00;;;13.30
71463;BMP180;59266;52.608;13.260;2023-11-19T11:17:33;100092.00;;;13.70
71463;BMP180;59266;52.608;13.260;2023-11-19T11:20:05;100081.00;;;14.20
71463;BMP180;59266;52.608;13.260;2023-11-19T11:22:46;100081.00;;;14.60
71463;BMP180;59266;52.608;13.260;2023-11-19T11:25:27;100075.00;;;15.40
71463;BMP180;59266;52.608;13.260;2023-11-19T11:28:04;100092.00;;;15.60
71463;BMP180;59266;52.608;13.260;2023-11-19T11:30:55;100068.00;;;15.40
71463;BMP180;59266;52.608;13.260;2023-11-19T11:33:55;100085.00;;;15.80
71463;BMP180;59266;52.608;13.260;2023-11-19T11:36:27;100085.00;;;15.20
71463;BMP180;59266;52.608;13.260;2023-11-19T11:38:58;100090.00;;;15.20
71463;BMP180;59266;52.608;13.260;2023-11-19T11:41:26;100087.00;;;14.60
71463;BMP180;59266;52.608;13.260;2023-11-19T11:43:56;100083.00;;;13.70
71463;BMP180;59266;52.608;13.260;2023-11-19T11:49:03;100102.00;;;13.20
71463;BMP180;59266;52.608;13.260;2023-11-19T11:57:02;100095.00;;;13.10
71463;BMP180;59266;52.608;13.260;2023-11-19T12:02:11;100084.00;;;12.90
71463;BMP180;59266;52.608;13.260;2023-11-19T12:04:40;100099.00;;;12.70
71463;BMP180;59266;52.608;13.260;2023-11-19T12:07:18;100100.00;;;12.70
71463;BMP180;59266;52.608;13.260;2023-11-19T12:09:52;100101.00;;;12.60
71463;BMP180;59266;52.608;13.260;2023-11-19T12:12:27;100103.00;;;12.60
71463;BMP180;59266;52.608;13.260;2023-11-19T12:15:08;100097.00;;;12.50
71463;BMP180;59266;52.608;13.260;2023-11-19T12:17:43;100097.00;;;12.60
71463;BMP180;59266;52.608;13.260;2023-11-19T12:20:11;100098.00;;;12.60
71463;BMP180;59266;52.608;13.260;2023-11-19T12:22:38;100099.00;;;12.50
71463;BMP180;59266;52.608;13.260;2023-11-19T12:25:08;100089.00;;;12.60
71463;BMP180;59266;52.608;13.260;2023-11-19T12:27:36;100094.00;;;12.70
71463;BMP180;59266;52.608;13.260;2023-11-19T12:30:04;100103.00;;;12.50
71463;BMP180;59266;52.608;13.260;2023-11-19T12:32:42;100099.00;;;12.40
71463;BMP180;59266;52.608;13.260;2023-11-19T12:35:10;100105.00;;;12.30
71463;BMP180;59266;52.608;13.260;2023-11-19T12:37:40;100104.00;;;12.30
71463;BMP180;59266;52.608;13.260;2023-11-19T12:40:18;100106.00;;;12.10
71463;BMP180;59266;52.608;13.260;2023-11-19T12:42:46;100109.00;;;12.00
71463;BMP180;59266;52.608;13.260;2023-11-19T12:45:13;100110.00;;;12.00
71463;BMP180;59266;52.608;13.260;2023-11-19T12:47:40;100104.00;;;12.10
71463;BMP180;59266;52.608;13.260;2023-11-19T12:50:17;100104.00;;;12.10
71463;BMP180;59266;52.608;13.260;2023-11-19T12:52:56;100103.00;;;12.00
71463;BMP180;59266;52.608;13.260;2023-11-19T12:55:43;100091.00;;;12.30
71463;BMP180;59266;52.608;13.260;2023-11-19T12:58:10;100089.00;;;12.60
71463;BMP180;59266;52.608;13.260;2023-11-19T13:00:37;100085.00;;;12.70
71463;BMP180;59266;52.608;13.260;2023-11-19T13:03:04;100073.00;;;13.00
71463;BMP180;59266;52.608;13.260;2023-11-19T13:05:32;100069.00;;;13.40
71463;BMP180;59266;52.608;13.260;2023-11-19T13:08:06;100065.00;;;13.10
71463;BMP180;59266;52.608;13.260;2023-11-19T13:10:34;100078.00;;;13.30
71463;BMP180;59266;52.608;13.260;2023-11-19T13:13:16;100078.00;;;13.10
71463;BMP180;59266;52.608;13.260;2023-11-19T13:15:43;100080.00;;;13.30
71463;BMP180;59266;52.608;13.260;2023-11-19T13:18:11;100077.00;;;13.20
71463;BMP180;59266;52.608;13.260;2023-11-19T13:20:38;100087.00;;;13.20
71463;BMP180;59266;52.608;13.260;2023-11-19T13:23:06;100087.00;;;12.80
71463;BMP180;59266;52.608;13.260;2023-11-19T13:25:33;100091.00;;;12.40
71463;BMP180;59266;52.608;13.260;2023-11-19T13:28:00;100077.00;;;12.30
71463;BMP180;59266;52.608;13.260;2023-11-19T13:30:27;100080.00;;;12.30
71463;BMP180;59266;52.608;13.260;2023-11-19T13:32:54;100074.00;;;12.10
71463;BMP180;59266;52.608;13.260;2023-11-19T13:35:22;100079.00;;;12.10
71463;BMP180;59266;52.608;13.260;2023-11-19T13:37:49;100081.00;;;12.10
71463;BMP180;59266;52.608;13.260;2023-11-19T13:40:16;100079.00;;;12.10
71463;BMP180;59266;52.608;13.260;2023-11-19T13:42:43;100079.00;;;12.10
71463;BMP180;59266;52.608;13.260;2023-11-19T13:45:14;100087.00;;;12.30
71463;BMP180;59266;52.608;13.260;2023-11-19T13:47:45;100088.00;;;12.20
71463;BMP180;59266;52.608;13.260;2023-11-19T13:50:14;100096.00;;;12.10
71463;BMP180;59266;52.608;13.260;2023-11-19T13:52:42;100090.00;;;12.00
71463;BMP180;59266;52.608;13.260;2023-11-19T13:55:10;100088.00;;;12.10
71463;BMP180;59266;52.608;13.260;2023-11-19T13:57:38;100099.00;;;12.10
71463;BMP180;59266;52.608;13.260;2023-11-19T14:00:07;100090.00;;;12.10
71463;BMP180;59266;52.608;13.260;2023-11-19T14:02:40;100098.00;;;12.00
71463;BMP180;59266;52.608;13.260;2023-11-19T14:05:08;100100.00;;;12.00
71463;BMP180;59266;52.608;13.260;2023-11-19T14:07:35;100109.00;;;12.00
71463;BMP180;59266;52.608;13.260;2023-11-19T14:10:02;100114.00;;;12.00
71463;BMP180;59266;52.608;13.260;2023-11-19T14:12:29;100115.00;;;12.10